• Join FlightAware (Why Join?)
  • Login
  • US Flag 
09:03PM EDT


 

Airport Tracker/Info


-or-


 

Live Flight TrackerFlight Track Log ✈ SWA718 ✈ 29-Apr-2013 ✈ KHOU - KMCO

Flight Track Log - Related Links

Times and Time Zones

All times are in EDT time to prevent confusion due to time zone crossing. See the SWA718 flight status page for this flight to view local times or setup timezone preferences in your user account.

Time Position Orientation Groundspeed Altitude Reporting Facility
EDT Latitude Longitude Course Direction KTS MPH feet Rate Location/Type
05:13PM 29.6539 -95.2392 109° East 262 302 1,700  Level Houston Center
05:14PM 29.5931 -95.2050 154° Southeast 249 287 4,300 2,700 Climbing Houston Center
05:15PM 29.5875 -95.1231 94° East 271 312 7,300 2,940 Climbing Houston Center
05:17PM 29.6036 -95.0342 78° East 283 326 10,400 2,700 Climbing Houston Center
05:18PM 29.6250 -94.9131 78° East 307 353 12,900 2,400 Climbing Houston Center
05:19PM 29.6408 -94.8025 81° East 341 392 15,400 1,440 Climbing Houston Center
05:20PM 29.6464 -94.6803 87° East 374 430 15,900 660 Climbing Houston Center
05:21PM 29.6550 -94.5553 85° East 389 448 16,800 900 Climbing Houston Center
05:22PM 29.6625 -94.4278 86° East 396 456 17,800 1,260 Climbing Houston Center
05:23PM 29.6714 -94.2964 86° East 408 470 19,500 1,980 Climbing Houston Center
05:24PM 29.6806 -94.1331 86° East 425 489 21,900 2,100 Climbing Houston Center
05:25PM 29.6867 -93.9886 87° East 447 514 23,900 1,740 Climbing Houston Center
05:26PM 29.6850 -93.8458 91° East 449 517 25,600 1,500 Climbing Houston Center
05:27PM 29.6831 -93.7003 91° East 457 526 27,000 1,380 Climbing Houston Center
05:28PM 29.6814 -93.5514 91° East 466 536 28,500 1,440 Climbing Houston Center
05:29PM 29.6789 -93.3711 91° East 473 544 30,100 1,320 Climbing Houston Center
05:30PM 29.6778 -93.2206 90° East 476 548 31,300 1,080 Climbing Houston Center
05:31PM 29.6753 -93.0678 91° East 480 552 32,400 1,020 Climbing Houston Center
05:32PM 29.6725 -92.9117 91° East 490 564 33,500 1,020 Climbing Houston Center
05:33PM 29.6694 -92.7561 91° East 490 564 34,600 1,140 Climbing Houston Center
05:34PM 29.6656 -92.5700 91° East 488 562 35,900 1,080 Climbing Houston Center
05:35PM 29.6378 -92.4200 102° East 481 554 36,900 480 Climbing Houston Center
05:36PM 29.6089 -92.2689 102° East 485 558 37,000  Climbing Houston Center
05:37PM 29.5803 -92.1153 102° East 491 565 37,000  Level Houston Center
05:38PM 29.5517 -91.9631 102° East 490 564 37,000  Level Houston Center
05:39PM 29.5161 -91.7797 103° East 490 564 37,000  Level Houston Center
05:40PM 29.4856 -91.6261 103° East 489 563 37,000  Level Houston Center
05:41PM 29.4569 -91.4742 102° East 490 564 37,000  Level Houston Center
05:42PM 29.4258 -91.3231 103° East 487 560 37,000  Level Houston Center
05:43PM 29.3975 -91.1714 102° East 488 562 37,000  Level Houston Center
05:44PM 29.3675 -91.0197 103° East 489 563 37,000  Level Houston Center
05:46PM 29.3311 -90.8389 103° East 488 562 37,000  Level Houston Center
05:47PM 29.3011 -90.6894 103° East 484 557 37,000  Level Houston Center
05:48PM 29.2697 -90.5372 103° East 490 564 37,000  Level Houston Center
05:49PM 29.2394 -90.3872 103° East 489 563 37,000  Level Houston Center
05:50PM 29.2019 -90.2378 106° East 490 564 37,000  Level Houston Center
05:51PM 29.1583 -90.0592 106° East 489 563 37,000  Level Houston Center
05:52PM 29.1219 -89.9081 105° East 494 568 37,000  Level Houston Center
05:53PM 29.0839 -89.7567 106° East 497 572 37,000  Level Houston Center
05:54PM 29.0461 -89.6075 106° East 494 568 37,000  Level Houston Center
05:55PM 29.0086 -89.4522 105° East 504 580 37,000  Level Houston Center
05:56PM 28.9639 -89.2719 106° East 497 572 37,000  Level Houston Center
05:57PM 28.9250 -89.1194 106° East 499 574 37,000  Level Houston Center
05:58PM 28.8864 -88.9678 106° East 501 577 37,000  Level Houston Center
05:59PM 28.8481 -88.8144 106° East 502 578 37,000  Level Houston Center
06:00PM 28.8086 -88.6606 106° East 507 583 37,000  Level Houston Center
06:01PM 28.7692 -88.5089 106° East 504 580 37,000  Level Houston Center
06:02PM 28.7222 -88.3247 106° East 505 581 37,000  Level Houston Center
06:03PM 28.6811 -88.1717 107° East 506 582 37,000  Level Houston Center
06:04PM 28.6389 -88.0069 106° East 509 586 37,000  Level Houston Center
06:05PM 28.6008 -87.8642 107° East 507 583 37,000  Level Houston Center
06:06PM 28.5581 -87.6992 106° East 510 587 37,000  Level Houston Center
06:07PM 28.5125 -87.5389 108° East 503 579 37,000  Level Jacksonville Center
06:08PM 28.4742 -87.3861 106° East 503 579 37,000 -60 Level Jacksonville Center
06:09PM 28.4333 -87.2356 107° East 508 585 36,900  Descending Jacksonville Center
06:10PM 28.3947 -87.0806 106° East 501 577 37,000  Climbing Jacksonville Center
06:11PM 28.3517 -86.9256 107° East 507 583 37,000  Level Jacksonville Center
06:12PM 28.3125 -86.7778 107° East 507 583 37,000  Level Jacksonville Center
06:13PM 28.2708 -86.6300 108° East 499 574 37,000 -60 Level Jacksonville Center
06:14PM 28.2272 -86.4778 108° East 504 580 36,900  Descending Jacksonville Center
06:15PM 28.1856 -86.3256 107° East 504 580 37,000  Climbing Jacksonville Center
06:16PM 28.1417 -86.1711 108° East 504 580 37,000  Level Jacksonville Center
06:17PM 28.0994 -86.0217 108° East 504 580 37,000 -60 Level Jacksonville Center
06:18PM 28.0572 -85.8675 107° East 504 580 36,900  Descending Jacksonville Center
06:19PM 28.0147 -85.7181 108° East 504 580 37,000  Climbing Jacksonville Center
06:20PM 27.9719 -85.5689 108° East 504 580 36,900  Descending Jacksonville Center
06:21PM 27.9436 -85.4131 102° East 504 580 37,000  Climbing Jacksonville Center
06:23PM 27.8989 -85.1419 101° East 506 582 37,000  Level Miami Center
06:24PM 27.8900 -84.9700 93° East 506 582 37,000  Level Miami Center
06:25PM 27.8781 -84.8119 95° East 506 582 37,000 -60 Level Miami Center
06:26PM 27.8806 -84.6528 89° East 506 582 36,900  Descending Miami Center
06:27PM 27.8744 -84.4928 92° East 506 582 37,000  Climbing Miami Center
06:28PM 27.8747 -84.3311 90° East 501 577 37,000 -120 Level Miami Center
06:29PM 27.8619 -84.1753 95° East 501 577 36,800 -1,140 Descending Miami Center
06:30PM 27.8217 -84.0228 107° East 501 577 34,800 -2,040 Descending Miami Center
06:31PM 27.7792 -83.8700 107° East 501 577 32,800 -1,920 Descending Miami Center
06:32PM 27.7783 -83.7106 90° East 492 566 31,000 -1,860 Descending Miami Center
06:33PM 27.7819 -83.5489 89° East 504 580 29,100 -2,160 Descending Miami Center
06:34PM 27.7953 -83.3925 84° East 504 580 26,700 -2,760 Descending Miami Center
06:35PM 27.8000 -83.2428 88° East 494 568 23,600 -1,860 Descending Miami Center
06:36PM 27.8061 -83.1000 87° East 473 544 23,000 -360 Descending Miami Center
06:37PM 27.8119 -82.9644 87° East 447 514 22,900 -180 Descending Miami Center
06:38PM 27.8156 -82.8333 88° East 429 494 22,700 -600 Descending Miami Center
06:39PM 27.8125 -82.7017 91° East 417 480 21,700 -1,080 Descending Miami Center
06:40PM 27.8239 -82.5733 84° East 412 474 20,600 -1,140 Descending Miami Center
06:41PM 27.8517 -82.4503 76° East 405 466 19,500 -1,020 Descending Miami Center
06:42PM 27.8894 -82.3347 70° East 399 459 18,600 -840 Descending Miami Center
06:43PM 27.9181 -82.2397 71° East 394 453 17,900 -1,380 Descending Miami Center
06:45PM 28.0167 -81.9333 70° East 386 444 14,000 -1,440 Descending Orlando TRACON
06:46PM 28.0667 -81.8333 60° Northeast 361 415 13,000 -600 Descending Orlando TRACON
06:47PM 28.1167 -81.7500 56° Northeast 346 398 12,900 -840 Descending Orlando TRACON
06:48PM 28.1667 -81.6667 56° Northeast 320 368 11,400 -1,260 Descending Orlando TRACON
06:49PM 28.2333 -81.5833 48° Northeast 299 344 10,300 -720 Descending Orlando TRACON
06:50PM 28.2833 -81.5167 50° Northeast 297 342 10,000 -180 Descending Orlando TRACON
06:51PM 28.3500 -81.4667 33° Northeast 294 338 10,000 -600 Level Orlando TRACON
06:52PM 28.4167 -81.4167 33° Northeast 271 312 8,900 -1,260 Descending Orlando TRACON
06:53PM 28.4500 -81.3333 66° East 265 305 7,400 -1,560 Descending Orlando TRACON
06:54PM 28.4833 -81.2667 60° Northeast 254 292 5,800 -1,500 Descending Orlando TRACON
06:55PM 28.5167 -81.2000 60° Northeast 256 295 4,400 -1,320 Descending Orlando TRACON
06:56PM 28.5500 -81.2500 307° West 217 250 3,300 -1,080 Descending Orlando TRACON
06:57PM 28.5167 -81.2833 221° Southwest 133 153 2,300 -1,140 Descending Orlando TRACON
06:58PM 28.4833 -81.3000 204° Southwest 139 160 1,000 -1,320 Descending Orlando TRACON
07:00PM 28.4294 -81.3090 221° Southwest  Level Estimated